Warwick, Canada
Current Conditions -  °F | °C
As of 3:00 AM on Tuesday 21 Oct 2014 (Local Time) from CYSC Reporting Station
Overcast Overcast  
Wind Chill: 36°   Ceiling: 8900
Heat Index: 39°   Visibility: 9mi
Dew Point: 37°   Wind: 5mph
Humidity: 93%   Direction: 60°ENE
Pressure: 29.95"   Gusts: NA
Location:  45.95°N, 71.98°W
Report Text: CYSC 210700Z AUTO 06004KT 9SM FEW070 OVC089 04/03 A2995 RMK SLP151
Loading
Personal Weather Stations






























Interactive Weather Map
Tropical Storm Tracking
New forecast layout! Learn more

10-Day Weather Forecast

Advertisements
Track Severe Weather on mobile